Time;durP1;ratioP1;P1;durP2;ratioP2;P2;SDS_P1;SDS_P2;PMS_P1;PMS_P2;Temp;Humidity;BMP_temperature;BMP_pressure;BME280_temperature;BME280_humidity;BME280_pressure;Samples;Min_cycle;Max_cycle;Signal;HPM_P1;HPM_P2
2023/12/12 00:00:57;;;;;;;;;;;19.80;63.30;;;;;;7321333;19;9287;-62
2023/12/12 00:03:28;;;;;;;;;;;19.90;63.20;;;;;;7322153;19;11021;-62
2023/12/12 00:05:57;;;;;;;;;;;20.00;63.20;;;;;;7321902;19;9287;-62
2023/12/12 00:08:26;;;;;;;;;;;20.00;63.10;;;;;;7322182;19;9466;-62
2023/12/12 00:10:55;;;;;;;;;;;20.10;63.10;;;;;;7322259;19;9462;-62
2023/12/12 00:13:24;;;;;;;;;;;20.10;63.60;;;;;;7323013;19;9259;-62
2023/12/12 00:15:53;;;;;;;;;;;20.20;62.90;;;;;;7319676;19;9511;-62
2023/12/12 00:18:22;;;;;;;;;;;20.20;63.40;;;;;;7324149;19;9514;-62
2023/12/12 00:20:54;;;;;;;;;;;20.30;62.80;;;;;;7322517;19;9262;-62
2023/12/12 00:23:23;;;;;;;;;;;20.20;62.60;;;;;;7322105;19;9514;-62
2023/12/12 00:25:52;;;;;;;;;;;20.20;62.50;;;;;;7320982;19;9502;-62
2023/12/12 00:28:21;;;;;;;;;;;20.30;62.60;;;;;;7321718;19;9485;-62
2023/12/12 00:30:50;;;;;;;;;;;20.20;62.50;;;;;;7321709;19;9469;-61
2023/12/12 00:33:20;;;;;;;;;;;20.20;62.40;;;;;;7322728;19;9494;-61
2023/12/12 00:35:50;;;;;;;;;;;20.20;62.40;;;;;;7319376;19;9645;-61
2023/12/12 00:38:41;;;;;;;;;;;20.20;62.40;;;;;;7320260;19;9280;-63
2023/12/12 00:41:10;;;;;;;;;;;20.20;62.50;;;;;;7322400;19;9104;-61
2023/12/12 00:43:44;;;;;;;;;;;20.10;62.50;;;;;;7320706;19;9252;-62
2023/12/12 00:46:13;;;;;;;;;;;20.10;62.40;;;;;;7320503;19;9513;-61
2023/12/12 00:48:42;;;;;;;;;;;20.10;62.50;;;;;;7320924;19;9226;-62
2023/12/12 00:51:11;;;;;;;;;;;20.00;62.50;;;;;;7320369;19;9258;-61
2023/12/12 00:54:03;;;;;;;;;;;20.00;62.60;;;;;;7319347;19;9315;-62
2023/12/12 00:56:32;;;;;;;;;;;19.90;62.60;;;;;;7320329;19;9617;-61
2023/12/12 00:59:01;;;;;;;;;;;19.90;62.60;;;;;;7317970;19;10570;-61
2023/12/12 01:01:30;;;;;;;;;;;19.80;62.60;;;;;;7321180;19;10804;-61
2023/12/12 01:04:19;;;;;;;;;;;19.80;62.80;;;;;;7319356;19;9452;-61
2023/12/12 01:06:48;;;;;;;;;;;19.70;62.80;;;;;;7319788;19;9465;-62
2023/12/12 01:09:20;;;;;;;;;;;19.70;62.80;;;;;;7320200;19;9674;-61
2023/12/12 01:11:49;;;;;;;;;;;19.70;62.90;;;;;;7320029;19;9486;-63
2023/12/12 01:14:18;;;;;;;;;;;19.70;63.00;;;;;;7320666;19;9285;-62
2023/12/12 01:16:47;;;;;;;;;;;19.60;63.00;;;;;;7318829;19;9626;-62
2023/12/12 01:19:16;;;;;;;;;;;19.60;63.10;;;;;;7320006;19;9657;-62
2023/12/12 01:21:46;;;;;;;;;;;19.50;63.10;;;;;;7319073;19;9489;-62
2023/12/12 01:24:38;;;;;;;;;;;19.40;63.10;;;;;;7316703;19;9207;-62
2023/12/12 01:27:08;;;;;;;;;;;19.40;63.20;;;;;;7320673;19;9505;-62
2023/12/12 01:29:40;;;;;;;;;;;19.40;63.30;;;;;;7320330;19;9686;-62
2023/12/12 01:32:09;;;;;;;;;;;19.40;63.20;;;;;;7322137;19;9622;-62
2023/12/12 01:34:39;;;;;;;;;;;19.40;63.30;;;;;;7319548;19;9453;-62
2023/12/12 01:37:08;;;;;;;;;;;19.40;63.30;;;;;;7319456;19;9573;-63
2023/12/12 01:39:39;;;;;;;;;;;19.30;63.30;;;;;;7319250;19;9445;-63
2023/12/12 01:42:08;;;;;;;;;;;19.30;63.30;;;;;;7320269;19;9533;-63
2023/12/12 01:44:37;;;;;;;;;;;19.30;63.30;;;;;;7314734;19;9265;-63
2023/12/12 01:47:06;;;;;;;;;;;19.30;63.20;;;;;;7318946;19;10527;-63
2023/12/12 01:49:36;;;;;;;;;;;19.40;63.20;;;;;;7319634;19;9469;-62
2023/12/12 01:52:05;;;;;;;;;;;19.40;63.10;;;;;;7319103;19;9610;-62
2023/12/12 01:54:38;;;;;;;;;;;19.40;63.00;;;;;;7319919;19;9411;-62
2023/12/12 01:57:10;;;;;;;;;;;19.50;63.00;;;;;;7316915;19;9497;-62
2023/12/12 01:59:41;;;;;;;;;;;19.60;63.00;;;;;;7320250;19;9678;-62
2023/12/12 02:02:11;;;;;;;;;;;19.60;62.80;;;;;;7318827;19;9528;-62
2023/12/12 02:04:42;;;;;;;;;;;19.70;62.70;;;;;;7317684;19;9340;-62
2023/12/12 02:07:13;;;;;;;;;;;19.70;62.60;;;;;;7318641;19;9468;-62
2023/12/12 02:09:42;;;;;;;;;;;19.80;62.60;;;;;;7317555;19;9260;-62
2023/12/12 02:12:14;;;;;;;;;;;19.80;62.40;;;;;;7319123;19;9214;-61
2023/12/12 02:14:43;;;;;;;;;;;19.90;62.40;;;;;;7319285;19;9591;-62
2023/12/12 02:17:12;;;;;;;;;;;20.00;62.40;;;;;;7317843;19;9509;-62
2023/12/12 02:19:41;;;;;;;;;;;20.00;62.30;;;;;;7314477;19;9218;-62
2023/12/12 02:22:13;;;;;;;;;;;20.10;62.20;;;;;;7318206;19;9191;-62
2023/12/12 02:24:42;;;;;;;;;;;20.10;62.10;;;;;;7317048;19;9461;-61
2023/12/12 02:27:11;;;;;;;;;;;20.10;62.10;;;;;;7316317;19;9298;-61
2023/12/12 02:29:40;;;;;;;;;;;20.20;62.10;;;;;;7319008;19;9691;-61
2023/12/12 02:32:09;;;;;;;;;;;20.20;62.00;;;;;;7317079;19;10657;-61
2023/12/12 02:34:39;;;;;;;;;;;20.20;61.90;;;;;;7318150;19;10795;-62
2023/12/12 02:37:08;;;;;;;;;;;20.20;61.90;;;;;;7318679;19;9507;-62
2023/12/12 02:39:59;;;;;;;;;;;20.20;61.80;;;;;;7317419;19;9298;-62
2023/12/12 02:42:28;;;;;;;;;;;20.20;61.80;;;;;;7317840;19;9499;-62
2023/12/12 02:44:58;;;;;;;;;;;20.20;61.80;;;;;;7319454;19;9513;-62
2023/12/12 02:47:27;;;;;;;;;;;20.10;61.70;;;;;;7316987;19;9771;-61
2023/12/12 02:49:56;;;;;;;;;;;20.10;61.80;;;;;;7318964;19;9347;-62
2023/12/12 02:52:25;;;;;;;;;;;20.10;61.80;;;;;;7318091;19;11010;-62
2023/12/12 02:54:54;;;;;;;;;;;20.10;61.80;;;;;;7318558;19;9742;-62
2023/12/12 02:57:26;;;;;;;;;;;20.10;61.90;;;;;;7318494;19;9473;-63
2023/12/12 02:59:55;;;;;;;;;;;20.00;61.80;;;;;;7317767;19;9373;-62
2023/12/12 03:02:24;;;;;;;;;;;20.00;61.90;;;;;;7318498;19;9348;-62
2023/12/12 03:04:53;;;;;;;;;;;19.90;61.90;;;;;;7318304;19;9418;-62
2023/12/12 03:07:22;;;;;;;;;;;19.90;62.00;;;;;;7318415;19;9620;-62
2023/12/12 03:09:51;;;;;;;;;;;19.90;62.00;;;;;;7317933;19;9429;-63
2023/12/12 03:12:20;;;;;;;;;;;19.80;62.00;;;;;;7319435;19;9470;-62
2023/12/12 03:14:52;;;;;;;;;;;19.80;62.20;;;;;;7317438;19;9505;-62
2023/12/12 03:17:21;;;;;;;;;;;19.70;62.20;;;;;;7317758;19;9180;-62
2023/12/12 03:19:50;;;;;;;;;;;19.60;62.20;;;;;;7317402;19;9205;-62
2023/12/12 03:22:19;;;;;;;;;;;19.60;62.20;;;;;;7314474;19;10100;-62
2023/12/12 03:24:48;;;;;;;;;;;19.60;62.30;;;;;;7318531;19;9378;-62
2023/12/12 03:27:17;;;;;;;;;;;19.50;62.40;;;;;;7318277;19;9469;-62
2023/12/12 03:29:46;;;;;;;;;;;19.50;62.40;;;;;;7317937;19;9455;-62
2023/12/12 03:32:17;;;;;;;;;;;19.50;62.50;;;;;;7314735;19;9217;-62
2023/12/12 03:34:48;;;;;;;;;;;19.40;62.50;;;;;;7319003;19;9493;-62
2023/12/12 03:37:19;;;;;;;;;;;19.40;62.50;;;;;;7317657;19;9357;-62
2023/12/12 03:39:48;;;;;;;;;;;19.40;62.60;;;;;;7316230;19;9521;-62
2023/12/12 03:42:17;;;;;;;;;;;19.30;62.60;;;;;;7316949;19;9248;-62
2023/12/12 03:44:46;;;;;;;;;;;19.30;62.70;;;;;;7317525;19;9194;-62
2023/12/12 03:47:17;;;;;;;;;;;19.30;62.60;;;;;;7318123;19;9504;-62
2023/12/12 03:49:46;;;;;;;;;;;19.30;62.60;;;;;;7316644;19;9561;-62
2023/12/12 03:52:15;;;;;;;;;;;19.30;62.60;;;;;;7316178;19;9673;-62
2023/12/12 03:54:44;;;;;;;;;;;19.40;62.60;;;;;;7319228;19;9237;-62
2023/12/12 03:57:13;;;;;;;;;;;19.40;62.50;;;;;;7316095;19;9119;-62
2023/12/12 03:59:42;;;;;;;;;;;19.40;62.40;;;;;;7315713;19;9665;-62
2023/12/12 04:02:11;;;;;;;;;;;19.50;62.50;;;;;;7316362;19;9399;-62
2023/12/12 04:04:42;;;;;;;;;;;19.60;62.50;;;;;;7317142;19;9254;-62
2023/12/12 04:07:11;;;;;;;;;;;19.60;62.30;;;;;;7317396;19;9161;-62
2023/12/12 04:09:40;;;;;;;;;;;19.60;62.20;;;;;;7313973;19;9263;-62
2023/12/12 04:12:10;;;;;;;;;;;19.70;62.10;;;;;;7316123;19;9543;-61
2023/12/12 04:14:39;;;;;;;;;;;19.70;62.10;;;;;;7315395;19;9645;-62
2023/12/12 04:17:08;;;;;;;;;;;19.80;62.00;;;;;;7317543;19;9190;-62
2023/12/12 04:19:36;;;;;;;;;;;19.80;62.00;;;;;;7317195;19;9863;-62
2023/12/12 04:22:08;;;;;;;;;;;19.90;61.90;;;;;;7317074;19;9195;-62
2023/12/12 04:24:38;;;;;;;;;;;20.00;61.90;;;;;;7315189;19;9418;-62
2023/12/12 04:27:07;;;;;;;;;;;20.10;61.80;;;;;;7316407;19;9448;-61
2023/12/12 04:29:36;;;;;;;;;;;20.10;61.70;;;;;;7314919;19;9418;-62
2023/12/12 04:32:06;;;;;;;;;;;20.10;61.60;;;;;;7315638;19;9312;-61
2023/12/12 04:34:36;;;;;;;;;;;20.20;61.60;;;;;;7316453;19;9262;-62
2023/12/12 04:37:08;;;;;;;;;;;20.20;61.50;;;;;;7315022;19;10678;-61
2023/12/12 04:39:38;;;;;;;;;;;20.20;61.50;;;;;;7313058;19;9552;-61
2023/12/12 04:42:07;;;;;;;;;;;20.20;61.40;;;;;;7314959;19;9526;-62
2023/12/12 04:44:36;;;;;;;;;;;20.20;61.50;;;;;;7320073;19;9548;-61
2023/12/12 04:47:06;;;;;;;;;;;20.20;61.40;;;;;;7318327;19;9264;-62
2023/12/12 04:49:35;;;;;;;;;;;20.10;61.40;;;;;;7320785;19;9730;-62
2023/12/12 04:52:01;;;;;;;;;;;20.20;61.40;;;;;;7320766;19;9521;-62
2023/12/12 04:54:33;;;;;;;;;;;20.20;61.40;;;;;;7321375;19;9460;-62
2023/12/12 04:57:02;;;;;;;;;;;20.10;61.40;;;;;;7321126;19;9537;-62
2023/12/12 04:59:31;;;;;;;;;;;20.10;61.30;;;;;;7322397;19;9468;-62
2023/12/12 05:02:01;;;;;;;;;;;20.10;61.30;;;;;;7321614;19;11196;-63
2023/12/12 05:04:30;;;;;;;;;;;20.10;61.30;;;;;;7320571;19;9162;-62
2023/12/12 05:06:59;;;;;;;;;;;20.00;61.30;;;;;;7321497;19;9839;-62
2023/12/12 05:09:28;;;;;;;;;;;20.00;62.00;;;;;;7319681;19;9681;-63
2023/12/12 05:11:59;;;;;;;;;;;19.90;61.40;;;;;;7322825;19;9382;-62
2023/12/12 05:14:28;;;;;;;;;;;19.90;61.50;;;;;;7321566;19;9667;-62
2023/12/12 05:16:57;;;;;;;;;;;19.80;62.10;;;;;;7319724;19;9548;-63
2023/12/12 05:19:26;;;;;;;;;;;19.80;61.60;;;;;;7320843;19;9481;-63
2023/12/12 05:21:55;;;;;;;;;;;19.80;61.60;;;;;;7320442;19;9309;-63
2023/12/12 05:24:24;;;;;;;;;;;19.70;61.70;;;;;;7320597;19;9482;-62
2023/12/12 05:26:53;;;;;;;;;;;19.70;61.70;;;;;;7320507;19;9367;-63
2023/12/12 05:29:24;;;;;;;;;;;19.60;61.80;;;;;;7321000;19;9218;-62
2023/12/12 05:31:53;;;;;;;;;;;19.60;62.00;;;;;;7321641;19;9731;-62
2023/12/12 05:34:22;;;;;;;;;;;19.50;61.90;;;;;;7320497;19;9521;-62
2023/12/12 05:36:51;;;;;;;;;;;19.50;62.00;;;;;;7319885;19;9194;-63
2023/12/12 05:39:21;;;;;;;;;;;19.50;62.10;;;;;;7320919;19;9246;-63
2023/12/12 05:42:10;;;;;;;;;;;19.40;62.10;;;;;;7319148;19;9595;-62
2023/12/12 05:44:42;;;;;;;;;;;19.40;62.10;;;;;;7320760;19;10774;-62
2023/12/12 05:47:11;;;;;;;;;;;19.40;62.20;;;;;;7320839;19;11247;-64
2023/12/12 05:49:41;;;;;;;;;;;19.30;62.10;;;;;;7320417;19;9456;-63
2023/12/12 05:52:10;;;;;;;;;;;19.30;62.20;;;;;;7317741;19;9587;-63
2023/12/12 05:54:40;;;;;;;;;;;19.30;62.20;;;;;;7319411;19;9627;-63
2023/12/12 05:57:09;;;;;;;;;;;19.30;62.20;;;;;;7319184;19;9383;-63
2023/12/12 05:59:37;;;;;;;;;;;19.30;62.20;;;;;;7320846;19;9328;-63
2023/12/12 06:02:10;;;;;;;;;;;19.40;62.20;;;;;;7319762;19;9379;-63
2023/12/12 06:04:39;;;;;;;;;;;19.40;62.10;;;;;;7317060;19;10838;-63
2023/12/12 06:07:08;;;;;;;;;;;19.40;62.00;;;;;;7319487;19;9501;-63
2023/12/12 06:09:37;;;;;;;;;;;19.50;62.00;;;;;;7319118;19;10780;-63
2023/12/12 06:12:06;;;;;;;;;;;19.50;62.00;;;;;;7318416;19;9851;-62
2023/12/12 06:14:35;;;;;;;;;;;19.60;62.00;;;;;;7317224;19;9245;-63
2023/12/12 06:17:27;;;;;;;;;;;19.70;61.80;;;;;;7319712;19;9539;-63
2023/12/12 06:19:56;;;;;;;;;;;19.70;61.70;;;;;;7321274;19;9606;-62
2023/12/12 06:22:25;;;;;;;;;;;19.80;61.70;;;;;;7320240;19;9446;-63
2023/12/12 06:24:54;;;;;;;;;;;19.90;61.60;;;;;;7317986;19;10677;-63
2023/12/12 06:27:23;;;;;;;;;;;19.90;61.60;;;;;;7318330;19;9656;-63
2023/12/12 06:29:52;;;;;;;;;;;20.00;61.50;;;;;;7319418;19;9152;-63
2023/12/12 06:32:22;;;;;;;;;;;20.00;61.40;;;;;;7320133;19;10629;-63
2023/12/12 06:34:54;;;;;;;;;;;20.10;61.40;;;;;;7318662;19;9758;-64
2023/12/12 06:37:22;;;;;;;;;;;20.10;61.30;;;;;;7319697;19;9206;-63
2023/12/12 06:39:52;;;;;;;;;;;20.20;61.30;;;;;;7318251;19;9258;-63
2023/12/12 06:42:21;;;;;;;;;;;20.20;61.20;;;;;;7318893;19;9215;-63
2023/12/12 06:44:50;;;;;;;;;;;20.20;61.20;;;;;;7318428;19;9466;-63
2023/12/12 06:47:19;;;;;;;;;;;20.20;61.10;;;;;;7318111;19;9620;-62
2023/12/12 06:49:48;;;;;;;;;;;20.20;61.10;;;;;;7318413;19;9518;-63
2023/12/12 06:52:20;;;;;;;;;;;20.20;61.10;;;;;;7318686;19;9463;-62
2023/12/12 06:54:49;;;;;;;;;;;20.10;61.00;;;;;;7319104;19;9350;-63
2023/12/12 06:57:18;;;;;;;;;;;20.20;61.10;;;;;;7319718;19;9392;-62
2023/12/12 06:59:48;;;;;;;;;;;20.10;61.00;;;;;;7319328;19;9608;-63
2023/12/12 07:02:17;;;;;;;;;;;20.10;61.00;;;;;;7318514;19;10198;-63
2023/12/12 07:04:46;;;;;;;;;;;20.10;61.00;;;;;;7318206;19;9533;-62
2023/12/12 07:07:15;;;;;;;;;;;20.10;61.00;;;;;;7320411;19;9466;-63
2023/12/12 07:09:47;;;;;;;;;;;20.00;61.00;;;;;;7317679;19;9538;-62
2023/12/12 07:12:16;;;;;;;;;;;20.00;61.00;;;;;;7319161;19;10317;-62
2023/12/12 07:14:45;;;;;;;;;;;19.90;61.10;;;;;;7317905;19;9460;-63
2023/12/12 07:17:14;;;;;;;;;;;19.90;61.10;;;;;;7318918;19;9598;-63
2023/12/12 07:19:43;;;;;;;;;;;19.90;61.20;;;;;;7318107;19;9308;-63
2023/12/12 07:22:12;;;;;;;;;;;19.80;61.20;;;;;;7319842;19;10355;-63
2023/12/12 07:24:42;;;;;;;;;;;19.80;61.30;;;;;;7315509;19;9600;-63
2023/12/12 07:27:14;;;;;;;;;;;19.70;61.30;;;;;;7316183;19;9586;-63
2023/12/12 07:29:43;;;;;;;;;;;19.70;61.40;;;;;;7316676;19;9601;-63
2023/12/12 07:32:11;;;;;;;;;;;19.60;61.40;;;;;;7317695;19;9595;-63
2023/12/12 07:34:41;;;;;;;;;;;19.60;61.50;;;;;;7316666;19;9254;-62
2023/12/12 07:37:10;;;;;;;;;;;19.60;61.60;;;;;;7315753;19;9582;-63
2023/12/12 07:39:39;;;;;;;;;;;19.50;61.60;;;;;;7315905;19;9522;-63
2023/12/12 07:42:31;;;;;;;;;;;19.50;61.70;;;;;;7315503;19;9254;-63
2023/12/12 07:45:01;;;;;;;;;;;19.40;61.70;;;;;;7316440;19;9574;-63
2023/12/12 07:47:30;;;;;;;;;;;19.40;61.70;;;;;;7316269;19;9465;-63
2023/12/12 07:49:59;;;;;;;;;;;19.40;61.80;;;;;;7316405;19;9398;-63
2023/12/12 07:52:28;;;;;;;;;;;19.30;61.80;;;;;;7317556;19;9614;-63
2023/12/12 07:54:57;;;;;;;;;;;19.30;61.80;;;;;;7313894;19;9513;-63
2023/12/12 07:57:26;;;;;;;;;;;19.30;61.90;;;;;;7318289;19;9645;-63
2023/12/12 07:59:58;;;;;;;;;;;19.30;61.90;;;;;;7316136;19;9519;-63
2023/12/12 08:02:27;;;;;;;;;;;19.30;61.80;;;;;;7317434;19;9566;-62
2023/12/12 08:04:56;;;;;;;;;;;19.40;61.90;;;;;;7315520;19;9326;-63
2023/12/12 08:07:25;;;;;;;;;;;19.40;61.80;;;;;;7317384;19;9433;-62
2023/12/12 08:09:54;;;;;;;;;;;19.50;62.30;;;;;;7315203;19;9794;-63
2023/12/12 08:12:25;;;;;;;;;;;19.50;62.30;;;;;;7316817;19;9353;-63
2023/12/12 08:14:55;;;;;;;;;;;19.60;61.60;;;;;;7315917;19;9485;-63
2023/12/12 08:17:26;;;;;;;;;;;19.60;61.50;;;;;;7314531;19;9063;-64
2023/12/12 08:19:55;;;;;;;;;;;19.70;61.50;;;;;;7320112;19;9406;-64
2023/12/12 08:22:25;;;;;;;;;;;19.70;61.40;;;;;;7319957;19;9457;-63
2023/12/12 08:24:54;;;;;;;;;;;19.80;61.30;;;;;;7320558;19;9452;-63
2023/12/12 08:27:23;;;;;;;;;;;19.80;61.30;;;;;;7320085;19;9222;-63
2023/12/12 08:29:52;;;;;;;;;;;19.90;61.20;;;;;;7320938;19;11511;-63
2023/12/12 08:32:21;;;;;;;;;;;20.00;61.20;;;;;;7321588;19;9586;-63
2023/12/12 08:34:53;;;;;;;;;;;20.00;61.10;;;;;;7321310;19;9232;-63
2023/12/12 08:37:22;;;;;;;;;;;20.10;61.20;;;;;;7321662;19;9604;-63
2023/12/12 08:39:51;;;;;;;;;;;20.10;61.00;;;;;;7320773;19;9474;-63
2023/12/12 08:42:21;;;;;;;;;;;20.10;61.00;;;;;;7321982;19;9268;-63
2023/12/12 08:44:50;;;;;;;;;;;20.20;60.90;;;;;;7320591;19;9354;-62
2023/12/12 08:47:19;;;;;;;;;;;20.20;60.90;;;;;;7320853;19;9337;-62
2023/12/12 08:49:48;;;;;;;;;;;20.20;60.90;;;;;;7320879;19;9588;-63
2023/12/12 08:52:19;;;;;;;;;;;20.20;60.80;;;;;;7321209;19;9476;-63
2023/12/12 08:54:48;;;;;;;;;;;20.20;60.80;;;;;;7320553;19;9436;-63
2023/12/12 08:57:18;;;;;;;;;;;20.20;60.80;;;;;;7322501;19;9293;-62
2023/12/12 08:59:47;;;;;;;;;;;20.20;60.80;;;;;;7321244;19;9509;-62
2023/12/12 09:02:16;;;;;;;;;;;20.20;60.80;;;;;;7320474;19;9131;-62
2023/12/12 09:04:45;;;;;;;;;;;20.10;60.70;;;;;;7322519;19;9393;-62
2023/12/12 09:07:13;;;;;;;;;;;20.10;60.80;;;;;;7322472;19;9295;-63
2023/12/12 09:09:45;;;;;;;;;;;20.10;60.70;;;;;;7320267;19;9209;-62
2023/12/12 09:12:14;;;;;;;;;;;20.10;60.70;;;;;;7320608;19;9470;-63
2023/12/12 09:14:43;;;;;;;;;;;20.10;60.80;;;;;;7321087;19;9473;-62
2023/12/12 09:17:12;;;;;;;;;;;20.00;60.80;;;;;;7319974;19;11858;-62
2023/12/12 09:19:41;;;;;;;;;;;20.00;60.80;;;;;;7320850;19;9577;-60
2023/12/12 09:22:10;;;;;;;;;;;19.90;60.80;;;;;;7320536;19;9241;-61
2023/12/12 09:24:39;;;;;;;;;;;19.90;61.00;;;;;;7316179;19;9281;-61
2023/12/12 09:27:11;;;;;;;;;;;19.90;61.30;;;;;;7319029;19;10304;-61
2023/12/12 09:29:39;;;;;;;;;;;19.80;61.30;;;;;;7316763;19;9206;-61
2023/12/12 09:32:09;;;;;;;;;;;19.80;62.10;;;;;;7319966;19;11534;-61
2023/12/12 09:34:38;;;;;;;;;;;19.70;61.70;;;;;;7319680;19;9473;-61
2023/12/12 09:37:07;;;;;;;;;;;19.70;61.80;;;;;;7318662;19;9230;-61
2023/12/12 09:39:36;;;;;;;;;;;19.70;61.90;;;;;;7321637;19;9462;-61
2023/12/12 09:42:17;;;;;;;;;;;19.60;61.90;;;;;;7320083;19;9502;-61
2023/12/12 09:44:59;;;;;;;;;;;19.60;62.00;;;;;;7319316;19;9185;-60
2023/12/12 09:47:28;;;;;;;;;;;19.60;62.10;;;;;;7321064;19;9265;-61
2023/12/12 09:49:59;;;;;;;;;;;19.60;62.10;;;;;;7318789;19;9474;-61
2023/12/12 09:52:31;;;;;;;;;;;19.50;62.20;;;;;;7321334;19;9493;-60
2023/12/12 09:55:01;;;;;;;;;;;19.50;62.30;;;;;;7317804;19;9474;-60
2023/12/12 09:57:34;;;;;;;;;;;19.50;62.30;;;;;;7318909;19;9483;-60
2023/12/12 10:00:04;;;;;;;;;;;19.50;62.40;;;;;;7315854;19;9813;-60
2023/12/12 10:02:37;;;;;;;;;;;19.50;62.50;;;;;;7321551;19;9453;-61
2023/12/12 10:05:09;;;;;;;;;;;19.40;62.50;;;;;;7317451;19;9393;-61
2023/12/12 10:07:39;;;;;;;;;;;19.40;62.60;;;;;;7318144;19;9571;-58
2023/12/12 10:10:14;;;;;;;;;;;19.40;62.70;;;;;;7315167;19;9170;-59
2023/12/12 10:12:47;;;;;;;;;;;19.40;62.70;;;;;;7320132;19;9425;-59
2023/12/12 10:15:26;;;;;;;;;;;19.40;62.80;;;;;;7320345;19;9453;-59
2023/12/12 10:17:58;;;;;;;;;;;19.40;62.80;;;;;;7318022;19;10700;-59
2023/12/12 10:20:28;;;;;;;;;;;19.40;62.90;;;;;;7320396;19;9241;-59
2023/12/12 10:23:01;;;;;;;;;;;19.40;62.90;;;;;;7319656;19;9469;-59
2023/12/12 10:25:31;;;;;;;;;;;19.40;62.80;;;;;;7314823;19;9524;-60
2023/12/12 10:28:03;;;;;;;;;;;19.50;62.80;;;;;;7315362;19;9804;-60
2023/12/12 10:30:32;;;;;;;;;;;19.50;62.70;;;;;;7315896;19;9633;-61
2023/12/12 10:33:03;;;;;;;;;;;19.60;62.70;;;;;;7318250;19;9616;-60
2023/12/12 10:35:33;;;;;;;;;;;19.60;62.60;;;;;;7316432;19;9290;-60
2023/12/12 10:38:09;;;;;;;;;;;19.70;62.50;;;;;;7319830;19;10630;-60
2023/12/12 10:40:38;;;;;;;;;;;19.70;62.30;;;;;;7316282;19;10395;-60
2023/12/12 10:43:10;;;;;;;;;;;19.80;62.30;;;;;;7316533;19;11315;-60
2023/12/12 10:45:43;;;;;;;;;;;19.90;62.20;;;;;;7317117;19;10816;-60
2023/12/12 10:48:18;;;;;;;;;;;19.90;62.20;;;;;;7318958;19;9178;-60
2023/12/12 10:50:54;;;;;;;;;;;20.00;62.10;;;;;;7318105;19;9394;-60
2023/12/12 10:53:26;;;;;;;;;;;20.10;62.10;;;;;;7319335;19;9560;-60
2023/12/12 10:55:58;;;;;;;;;;;20.10;62.00;;;;;;7316605;19;9214;-60
2023/12/12 10:58:51;;;;;;;;;;;20.10;61.90;;;;;;7315636;19;9602;-60
2023/12/12 11:01:21;;;;;;;;;;;20.20;61.90;;;;;;7316852;19;9451;-60
2023/12/12 11:03:53;;;;;;;;;;;20.20;61.90;;;;;;7318102;19;9736;-61
2023/12/12 11:06:24;;;;;;;;;;;20.20;61.80;;;;;;7316197;19;9645;-61
2023/12/12 11:08:54;;;;;;;;;;;20.20;61.80;;;;;;7318435;19;9518;-60
2023/12/12 11:11:24;;;;;;;;;;;20.20;61.80;;;;;;7316423;19;9426;-60
2023/12/12 11:13:56;;;;;;;;;;;20.20;61.80;;;;;;7319588;19;9365;-60
2023/12/12 11:16:26;;;;;;;;;;;20.20;61.80;;;;;;7316887;19;9472;-60
2023/12/12 11:18:59;;;;;;;;;;;20.20;62.40;;;;;;7315694;19;10663;-60
2023/12/12 11:21:55;;;;;;;;;;;20.20;61.90;;;;;;7318187;19;9584;-60
2023/12/12 11:24:44;;;;;;;;;;;20.20;61.90;;;;;;7313809;19;9469;-60
2023/12/12 11:27:16;;;;;;;;;;;20.10;61.90;;;;;;7315602;19;9401;-60
2023/12/12 11:29:45;;;;;;;;;;;20.10;62.00;;;;;;7319369;19;9198;-60
2023/12/12 11:32:23;;;;;;;;;;;20.10;62.00;;;;;;7315565;19;9607;-60
2023/12/12 11:34:53;;;;;;;;;;;20.10;62.10;;;;;;7316399;19;9277;-60
2023/12/12 11:37:35;;;;;;;;;;;20.00;62.20;;;;;;7317066;19;10563;-61
2023/12/12 11:40:05;;;;;;;;;;;20.00;62.30;;;;;;7318986;19;10134;-60
2023/12/12 11:42:36;;;;;;;;;;;19.90;62.30;;;;;;7317073;19;9471;-61
2023/12/12 11:45:06;;;;;;;;;;;19.90;62.30;;;;;;7315406;19;9458;-60
2023/12/12 11:47:36;;;;;;;;;;;19.80;62.40;;;;;;7317980;19;9500;-60
2023/12/12 11:50:32;;;;;;;;;;;19.80;62.50;;;;;;7316766;19;10984;-61
2023/12/12 11:53:04;;;;;;;;;;;19.80;62.60;;;;;;7313438;19;9224;-59
2023/12/12 11:55:36;;;;;;;;;;;19.80;62.60;;;;;;7316095;19;9354;-60
2023/12/12 11:58:09;;;;;;;;;;;19.70;62.70;;;;;;7314409;19;9162;-60
2023/12/12 12:00:40;;;;;;;;;;;19.70;63.00;;;;;;7316464;19;9491;-60
2023/12/12 12:03:11;;;;;;;;;;;19.70;63.20;;;;;;7315257;19;10403;-61
2023/12/12 12:05:40;;;;;;;;;;;19.60;63.40;;;;;;7316318;19;9530;-60
2023/12/12 12:08:09;;;;;;;;;;;19.60;63.80;;;;;;7314936;19;9390;-60
2023/12/12 12:10:38;;;;;;;;;;;19.70;63.70;;;;;;7315627;19;9659;-60
2023/12/12 12:13:09;;;;;;;;;;;19.70;63.70;;;;;;7315488;19;9186;-60
2023/12/12 12:15:45;;;;;;;;;;;19.70;63.70;;;;;;7316504;19;9332;-60
2023/12/12 12:18:28;;;;;;;;;;;19.70;63.70;;;;;;7316877;19;9219;-60
2023/12/12 12:20:57;;;;;;;;;;;19.80;63.50;;;;;;7314548;19;9602;-60
2023/12/12 12:23:26;;;;;;;;;;;19.80;63.40;;;;;;7315084;19;9526;-60
2023/12/12 12:26:01;;;;;;;;;;;19.80;63.30;;;;;;7315994;19;11136;-60
2023/12/12 12:28:36;;;;;;;;;;;19.90;63.20;;;;;;7315460;19;11177;-60
2023/12/12 12:31:05;;;;;;;;;;;19.90;63.20;;;;;;7311725;19;9448;-60
2023/12/12 12:33:35;;;;;;;;;;;20.00;63.10;;;;;;7288312;19;9235;-60
2023/12/12 12:36:05;;;;;;;;;;;20.00;63.10;;;;;;7291223;19;9317;-60
2023/12/12 12:38:35;;;;;;;;;;;20.10;63.00;;;;;;7313828;19;9491;-60
2023/12/12 12:41:04;;;;;;;;;;;20.20;62.90;;;;;;7311942;19;9445;-61
2023/12/12 12:43:37;;;;;;;;;;;20.20;62.80;;;;;;7310618;19;9463;-60
2023/12/12 12:46:10;;;;;;;;;;;20.20;62.80;;;;;;7313928;19;9231;-60
2023/12/12 12:48:40;;;;;;;;;;;20.30;62.70;;;;;;7308987;19;9645;-60
2023/12/12 12:51:09;;;;;;;;;;;20.40;62.70;;;;;;7315148;19;9578;-60
2023/12/12 12:53:38;;;;;;;;;;;20.40;62.50;;;;;;7314240;19;9008;-60
2023/12/12 12:56:09;;;;;;;;;;;20.50;62.60;;;;;;7313385;19;9461;-60
2023/12/12 12:58:40;;;;;;;;;;;20.50;62.50;;;;;;7311500;19;9461;-60
2023/12/12 13:01:29;;;;;;;;;;;20.50;62.30;;;;;;7308648;19;9628;-60
2023/12/12 13:03:58;;;;;;;;;;;20.50;62.20;;;;;;7317763;19;9489;-60
2023/12/12 13:06:27;;;;;;;;;;;20.60;62.20;;;;;;7317160;19;9494;-60
2023/12/12 13:08:57;;;;;;;;;;;20.60;62.20;;;;;;7319020;19;9463;-60
2023/12/12 13:11:26;;;;;;;;;;;20.60;62.20;;;;;;7319442;19;9457;-60
2023/12/12 13:13:58;;;;;;;;;;;20.60;62.20;;;;;;7318549;19;9420;-60
2023/12/12 13:16:27;;;;;;;;;;;20.70;62.20;;;;;;7319361;19;9466;-59
2023/12/12 13:18:56;;;;;;;;;;;20.60;62.20;;;;;;7320497;19;9465;-60
2023/12/12 13:21:25;;;;;;;;;;;20.60;62.20;;;;;;7319538;19;9743;-59
2023/12/12 13:23:54;;;;;;;;;;;20.60;62.30;;;;;;7317843;19;9251;-60
2023/12/12 13:26:23;;;;;;;;;;;20.60;62.30;;;;;;7320844;19;9454;-60
2023/12/12 13:28:52;;;;;;;;;;;20.60;62.30;;;;;;7318860;19;9462;-60
2023/12/12 13:31:25;;;;;;;;;;;20.50;62.30;;;;;;7320384;19;9513;-59
2023/12/12 13:33:56;;;;;;;;;;;20.50;62.40;;;;;;7318178;19;9501;-60
2023/12/12 13:36:25;;;;;;;;;;;20.50;62.50;;;;;;7318704;19;9487;-60
2023/12/12 13:38:55;;;;;;;;;;;20.40;62.40;;;;;;7315675;19;9453;-59
2023/12/12 13:41:24;;;;;;;;;;;20.40;62.50;;;;;;7316066;19;9527;-60
2023/12/12 13:44:13;;;;;;;;;;;20.30;62.60;;;;;;7317422;19;9512;-59
2023/12/12 13:46:44;;;;;;;;;;;20.30;62.70;;;;;;7320178;19;9379;-59
2023/12/12 13:49:14;;;;;;;;;;;20.20;62.70;;;;;;7319991;19;9305;-60
2023/12/12 13:51:43;;;;;;;;;;;20.20;62.80;;;;;;7283188;19;10669;-59
2023/12/12 13:54:12;;;;;;;;;;;20.10;62.80;;;;;;7319548;19;9479;-59
2023/12/12 13:56:41;;;;;;;;;;;20.20;63.00;;;;;;7317083;19;9637;-60
2023/12/12 13:59:10;;;;;;;;;;;20.10;63.00;;;;;;7317886;19;9766;-60
2023/12/12 14:01:39;;;;;;;;;;;20.10;63.10;;;;;;7317768;19;9618;-60
2023/12/12 14:04:10;;;;;;;;;;;20.10;63.20;;;;;;7319598;19;9742;-59
2023/12/12 14:06:39;;;;;;;;;;;20.00;63.20;;;;;;7318528;19;9429;-60
2023/12/12 14:09:09;;;;;;;;;;;20.10;63.20;;;;;;7317759;19;9525;-60
2023/12/12 14:11:38;;;;;;;;;;;20.10;63.10;;;;;;7315408;19;9546;-59
2023/12/12 14:14:09;;;;;;;;;;;20.10;63.00;;;;;;7318310;19;9427;-60
2023/12/12 14:16:38;;;;;;;;;;;20.10;63.00;;;;;;7313157;19;9523;-60
2023/12/12 14:19:08;;;;;;;;;;;20.10;63.00;;;;;;7317568;19;9459;-60
2023/12/12 14:21:40;;;;;;;;;;;20.20;63.00;;;;;;7318497;19;9474;-59
2023/12/12 14:24:09;;;;;;;;;;;20.20;62.80;;;;;;7316361;19;9371;-60
2023/12/12 14:26:38;;;;;;;;;;;20.30;62.90;;;;;;7317699;19;9463;-60
2023/12/12 14:29:08;;;;;;;;;;;20.30;62.80;;;;;;7315036;19;9659;-59
2023/12/12 14:31:37;;;;;;;;;;;20.40;62.80;;;;;;7316666;19;10353;-60
2023/12/12 14:34:07;;;;;;;;;;;20.40;62.70;;;;;;7315452;19;9470;-60
2023/12/12 14:36:36;;;;;;;;;;;20.40;62.70;;;;;;7317342;19;9588;-60
2023/12/12 14:39:07;;;;;;;;;;;20.50;62.60;;;;;;7316147;19;9630;-60
2023/12/12 14:41:36;;;;;;;;;;;20.50;62.60;;;;;;7317486;19;9469;-60
2023/12/12 14:44:07;;;;;;;;;;;20.60;62.60;;;;;;7316519;19;9468;-59
2023/12/12 14:46:36;;;;;;;;;;;20.60;62.60;;;;;;7314682;19;9237;-59
2023/12/12 14:49:05;;;;;;;;;;;20.60;62.40;;;;;;7316436;19;9585;-59